Flippin, Kentucky
Current Conditions -  °F | °C
As of 3:15 AM on Thursday 18 Dec 2014 (Local Time) from KGLW Reporting Station
Overcast Overcast  
Wind Chill: 30°   Ceiling: 9000
Heat Index: 30°   Visibility: 10mi
Dew Point: 25°   Wind: 0mph
Humidity: 84%   Direction: NA
Pressure: 30.26"   Gusts: NA
Location:  36.7279°N, 85.6843°W
Report Text: KGLW 180915Z AUTO 00000KT 10SM OVC090 M01/M04 A3026 RMK AO2 T10131037
Loading
Personal Weather Stations






























Interactive Weather Map New forecast layout! Learn more

10-Day Weather Forecast

Advertisements
Track Severe Weather on mobile